No particular awareness of the weather is required.    There are no Weather-warnings


Meteo18 Weather Cam more information Meteo18 Weather Cam


Thunder radar more information blitzortung!


Rain radar more information rain snow radar


Visit our other weather sites:

Template documentation
and downloads

And another site



Weather Underground History page Text

Daily Summary for May 14, 2017 Units:  Both    English   Metric
« Previous Day
Next Day »
Daily Weekly Monthly Yearly Custom
  High: Low: Average:
Temperature: TemperatureC °F /  -17.8 °C 10.1 °F /  -12.2 °C 15.2 °F /  -9.3 °C
Dew Point: DewpointC °F /  -17.8 °C 8.9 °F /  -12.8 °C 11.4 °F /  -11.4 °C
Humidity: Humidity % 55 % 79 %
Wind Speed: WindSpeedKMH mph /  0 km/h - 4.1 mph /  6.6 km/h
Wind Gust: WindSpeedGustKMH mph /  0 km/h - -
Wind:- - WSW
Pressure: PressurehPa in /  0 hPa 1018.5 in /  34486.4 hPa -
Precipitation: 2.3 in /  58.42 mm    
Historical Graphs
 
 
Tabular Data for May 14, 2017
Time Temperature Dew Point Pressure Wind Wind Speed Wind Gust Humidity Rainfall Rate (Hourly)
TemperatureC °F /  -17.8 °C DewpointC °F /  -17.8 °C PressurehPa in /  0 hPa Calm     Humidity % HourlyPrecipMM in /  0 mm
00:02 12.4 °F /  -10.9 °C 10.6 °F /  -11.9 °C 1018.5 in /  34486.4 hPa Calm   3.2 mph /  5.1 km/h 89 % 0.0 in /  0 mm
00:12 12.4 °F /  -10.9 °C 10.8 °F /  -11.8 °C 1018.5 in /  34486.4 hPa Calm   3.2 mph /  5.1 km/h 90 % 0.0 in /  0 mm
00:17 12.2 °F /  -11 °C 10.6 °F /  -11.9 °C 1018.8 in /  34496.6 hPa Calm   3.2 mph /  5.1 km/h 90 % 0.0 in /  0 mm
00:22 12.2 °F /  -11 °C 10.6 °F /  -11.9 °C 1018.8 in /  34496.6 hPa Calm   3.2 mph /  5.1 km/h 90 % 0.0 in /  0 mm
00:32 12.4 °F /  -10.9 °C 11.0 °F /  -11.7 °C 1018.8 in /  34496.6 hPa Calm   1.6 mph /  2.6 km/h 91 % 0.0 in /  0 mm
00:42 12.6 °F /  -10.8 °C 11.2 °F /  -11.6 °C 1018.8 in /  34496.6 hPa Calm   1.6 mph /  2.6 km/h 91 % 0.0 in /  0 mm
00:52 12.9 °F /  -10.6 °C 11.5 °F /  -11.4 °C 1019.2 in /  34510.1 hPa SW 1.6 mph /  2.6 km/h 1.6 mph /  2.6 km/h 91 % 0.0 in /  0 mm
00:57 13.1 °F /  -10.5 °C 11.5 °F /  -11.4 °C 1019.2 in /  34510.1 hPa Calm   4.8 mph /  7.7 km/h 90 % 0.0 in /  0 mm
01:02 12.6 °F /  -10.8 °C 10.7 °F /  -11.8 °C 1019.2 in /  34510.1 hPa Calm   4.8 mph /  7.7 km/h 88 % 0.0 in /  0 mm
01:12 12.2 °F /  -11 °C 10.6 °F /  -11.9 °C 1019.5 in /  34520.3 hPa Calm   4.8 mph /  7.7 km/h 90 % 0.0 in /  0 mm
01:17 12.3 °F /  -10.9 °C 11.0 °F /  -11.7 °C 1019.5 in /  34520.3 hPa Calm   1.6 mph /  2.6 km/h 92 % 0.0 in /  0 mm
01:22 12.5 °F /  -10.8 °C 11.2 °F /  -11.6 °C 1019.5 in /  34520.3 hPa Calm   1.6 mph /  2.6 km/h 92 % 0.0 in /  0 mm
01:32 12.7 °F /  -10.7 °C 11.4 °F /  -11.4 °C 1019.2 in /  34510.1 hPa Calm   1.6 mph /  2.6 km/h 92 % 0.0 in /  0 mm
01:37 12.9 °F /  -10.6 °C 11.6 °F /  -11.3 °C 1019.5 in /  34520.3 hPa Calm   1.6 mph /  2.6 km/h 92 % 0.0 in /  0 mm
01:42 13.0 °F /  -10.6 °C 11.6 °F /  -11.3 °C 1019.5 in /  34520.3 hPa Calm     91 % 0.0 in /  0 mm
01:47 12.8 °F /  -10.7 °C 11.2 °F /  -11.6 °C 1019.5 in /  34520.3 hPa Calm   1.6 mph /  2.6 km/h 90 % 0.0 in /  0 mm
01:52 12.4 °F /  -10.9 °C 10.8 °F /  -11.8 °C 1019.5 in /  34520.3 hPa Calm   4.8 mph /  7.7 km/h 90 % 0.0 in /  0 mm
01:57 12.2 °F /  -11 °C 10.8 °F /  -11.8 °C 1019.9 in /  34533.8 hPa South 1.6 mph /  2.6 km/h 4.8 mph /  7.7 km/h 91 % 0.0 in /  0 mm
02:02 12.1 °F /  -11.1 °C 10.8 °F /  -11.8 °C 1019.9 in /  34533.8 hPa Calm   3.2 mph /  5.1 km/h 92 % 0.0 in /  0 mm
02:07 12.1 °F /  -11.1 °C 10.8 °F /  -11.8 °C 1019.9 in /  34533.8 hPa South 1.6 mph /  2.6 km/h 3.2 mph /  5.1 km/h 92 % 0.0 in /  0 mm
02:12 12.0 °F /  -11.1 °C 10.9 °F /  -11.7 °C 1019.9 in /  34533.8 hPa SSW 1.6 mph /  2.6 km/h 3.2 mph /  5.1 km/h 93 % 0.0 in /  0 mm
02:17 12.0 °F /  -11.1 °C 10.9 °F /  -11.7 °C 1019.9 in /  34533.8 hPa Calm   3.2 mph /  5.1 km/h 93 % 0.0 in /  0 mm
02:22 11.9 °F /  -11.2 °C 10.8 °F /  -11.8 °C 1019.9 in /  34533.8 hPa SSW 1.6 mph /  2.6 km/h 3.2 mph /  5.1 km/h 93 % 0.0 in /  0 mm
02:32 12.1 °F /  -11.1 °C 11.2 °F /  -11.6 °C 1019.9 in /  34533.8 hPa SW 4.8 mph /  7.7 km/h 4.8 mph /  7.7 km/h 94 % 0.0 in /  0 mm
02:37 12.2 °F /  -11 °C 11.3 °F /  -11.5 °C 1020.2 in /  34544 hPa SSW 6.4 mph /  10.3 km/h 8.0 mph /  12.9 km/h 94 % 0.0 in /  0 mm
02:42 12.2 °F /  -11 °C 11.3 °F /  -11.5 °C 1020.2 in /  34544 hPa SSW 1.6 mph /  2.6 km/h 8.0 mph /  12.9 km/h 94 % 0.8 in /  20.32 mm
02:47 12.2 °F /  -11 °C 11.3 °F /  -11.5 °C 1020.2 in /  34544 hPa SSW 3.2 mph /  5.1 km/h 8.0 mph /  12.9 km/h 94 % 1.5 in /  38.1 mm
02:52 12.2 °F /  -11 °C 11.3 °F /  -11.5 °C 1020.2 in /  34544 hPa SSW 1.6 mph /  2.6 km/h 8.0 mph /  12.9 km/h 94 % 1.5 in /  38.1 mm
02:57 12.1 °F /  -11.1 °C 11.2 °F /  -11.6 °C 1020.2 in /  34544 hPa Calm   4.8 mph /  7.7 km/h 94 % 1.5 in /  38.1 mm
03:07 12.1 °F /  -11.1 °C 11.3 °F /  -11.5 °C 1020.2 in /  34544 hPa Calm   3.2 mph /  5.1 km/h 95 % 1.5 in /  38.1 mm
03:12 12.2 °F /  -11 °C 11.4 °F /  -11.4 °C 1020.2 in /  34544 hPa SW 1.6 mph /  2.6 km/h 3.2 mph /  5.1 km/h 95 % 1.5 in /  38.1 mm
03:17 12.2 °F /  -11 °C 11.4 °F /  -11.4 °C 1020.5 in /  34554.1 hPa Calm   3.2 mph /  5.1 km/h 95 % 1.5 in /  38.1 mm
03:22 12.1 °F /  -11.1 °C 11.3 °F /  -11.5 °C 1020.5 in /  34554.1 hPa SSW 1.6 mph /  2.6 km/h 3.2 mph /  5.1 km/h 95 % 1.5 in /  38.1 mm
03:27 12.1 °F /  -11.1 °C 11.3 °F /  -11.5 °C 1020.5 in /  34554.1 hPa Calm   3.2 mph /  5.1 km/h 95 % 1.5 in /  38.1 mm
03:32 12.2 °F /  -11 °C 11.4 °F /  -11.4 °C 1020.5 in /  34554.1 hPa Calm   6.4 mph /  10.3 km/h 95 % 1.5 in /  38.1 mm
03:37 12.2 °F /  -11 °C 11.4 °F /  -11.4 °C 1020.5 in /  34554.1 hPa Calm   6.4 mph /  10.3 km/h 95 % 1.5 in /  38.1 mm
03:42 12.3 °F /  -10.9 °C 11.5 °F /  -11.4 °C 1020.5 in /  34554.1 hPa Calm   3.2 mph /  5.1 km/h 95 % 0.5 in /  12.7 mm
03:47 12.3 °F /  -10.9 °C 11.5 °F /  -11.4 °C 1020.5 in /  34554.1 hPa Calm   1.6 mph /  2.6 km/h 95 % 0.0 in /  0 mm
03:52 12.3 °F /  -10.9 °C 11.5 °F /  -11.4 °C 1020.5 in /  34554.1 hPa Calm   3.2 mph /  5.1 km/h 95 % 0.0 in /  0 mm
03:57 12.2 °F /  -11 °C 11.4 °F /  -11.4 °C 1020.5 in /  34554.1 hPa Calm   3.2 mph /  5.1 km/h 95 % 0.0 in /  0 mm
04:02 12.2 °F /  -11 °C 11.4 °F /  -11.4 °C 1020.5 in /  34554.1 hPa SSW 1.6 mph /  2.6 km/h 3.2 mph /  5.1 km/h 95 % 0.0 in /  0 mm
04:12 12.1 °F /  -11.1 °C 11.3 °F /  -11.5 °C 1020.5 in /  34554.1 hPa Calm   4.8 mph /  7.7 km/h 95 % 0.0 in /  0 mm
04:22 12.1 °F /  -11.1 °C 11.3 °F /  -11.5 °C 1020.5 in /  34554.1 hPa Calm   4.8 mph /  7.7 km/h 95 % 0.3 in /  7.62 mm
04:27 12.0 °F /  -11.1 °C 11.2 °F /  -11.6 °C 1020.5 in /  34554.1 hPa Calm   1.6 mph /  2.6 km/h 95 % 0.3 in /  7.62 mm
04:32 11.9 °F /  -11.2 °C 11.1 °F /  -11.6 °C 1020.5 in /  34554.1 hPa Calm   1.6 mph /  2.6 km/h 95 % 0.3 in /  7.62 mm
04:37 11.9 °F /  -11.2 °C 11.1 °F /  -11.6 °C 1020.9 in /  34567.7 hPa Calm   1.6 mph /  2.6 km/h 95 % 0.3 in /  7.62 mm
04:42 11.9 °F /  -11.2 °C 11.1 °F /  -11.6 °C 1020.9 in /  34567.7 hPa Calm     95 % 0.3 in /  7.62 mm
04:47 11.9 °F /  -11.2 °C 11.3 °F /  -11.5 °C 1020.9 in /  34567.7 hPa Calm     96 % 0.3 in /  7.62 mm
04:52 11.9 °F /  -11.2 °C 11.3 °F /  -11.5 °C 1020.9 in /  34567.7 hPa Calm     96 % 0.3 in /  7.62 mm
05:02 11.8 °F /  -11.2 °C 11.2 °F /  -11.6 °C 1021.2 in /  34577.8 hPa Calm     96 % 0.3 in /  7.62 mm
05:12 11.8 °F /  -11.2 °C 11.2 °F /  -11.6 °C 1021.2 in /  34577.8 hPa Calm     96 % 0.3 in /  7.62 mm
05:17 11.7 °F /  -11.3 °C 11.1 °F /  -11.6 °C 1021.2 in /  34577.8 hPa Calm     96 % 0.0 in /  0 mm
05:22 11.7 °F /  -11.3 °C 11.1 °F /  -11.6 °C 1021.2 in /  34577.8 hPa Calm     96 % 0.0 in /  0 mm
05:32 11.7 °F /  -11.3 °C 11.1 °F /  -11.6 °C 1021.2 in /  34577.8 hPa Calm     96 % 0.0 in /  0 mm
05:37 11.6 °F /  -11.3 °C 11.0 °F /  -11.7 °C 1021.2 in /  34577.8 hPa Calm     96 % 0.0 in /  0 mm
05:42 11.6 °F /  -11.3 °C 11.0 °F /  -11.7 °C 1021.2 in /  34577.8 hPa Calm     96 % 0.0 in /  0 mm
05:47 11.4 °F /  -11.4 °C 10.8 °F /  -11.8 °C 1021.2 in /  34577.8 hPa Calm     96 % 0.0 in /  0 mm
05:52 11.3 °F /  -11.5 °C 10.7 °F /  -11.8 °C 1021.6 in /  34591.4 hPa Calm     96 % 0.0 in /  0 mm
05:57 11.2 °F /  -11.6 °C 10.6 °F /  -11.9 °C 1021.6 in /  34591.4 hPa Calm     96 % 0.0 in /  0 mm
06:02 11.1 °F /  -11.6 °C 10.5 °F /  -11.9 °C 1021.6 in /  34591.4 hPa Calm     96 % 0.0 in /  0 mm
06:12 10.8 °F /  -11.8 °C 10.2 °F /  -12.1 °C 1021.6 in /  34591.4 hPa Calm     96 % 0.0 in /  0 mm
06:17 10.8 °F /  -11.8 °C 10.2 °F /  -12.1 °C 1021.6 in /  34591.4 hPa Calm     96 % 0.0 in /  0 mm
06:22 10.7 °F /  -11.8 °C 10.1 °F /  -12.2 °C 1021.6 in /  34591.4 hPa Calm     96 % 0.0 in /  0 mm
06:27 10.7 °F /  -11.8 °C 10.1 °F /  -12.2 °C 1021.6 in /  34591.4 hPa Calm     96 % 0.0 in /  0 mm
06:32 10.4 °F /  -12 °C 9.6 °F /  -12.4 °C 1021.6 in /  34591.4 hPa Calm   1.6 mph /  2.6 km/h 95 % 0.0 in /  0 mm
06:37 10.2 °F /  -12.1 °C 9.6 °F /  -12.4 °C 1021.6 in /  34591.4 hPa Calm   1.6 mph /  2.6 km/h 96 % 0.0 in /  0 mm
06:42 10.1 °F /  -12.2 °C 9.5 °F /  -12.5 °C 1021.6 in /  34591.4 hPa Calm     96 % 0.0 in /  0 mm
06:47 10.2 °F /  -12.1 °C 9.6 °F /  -12.4 °C 1021.9 in /  34601.5 hPa Calm     96 % 0.0 in /  0 mm
06:57 11.2 °F /  -11.6 °C 10.7 °F /  -11.8 °C 1021.9 in /  34601.5 hPa Calm     97 % 0.0 in /  0 mm
07:02 10.9 °F /  -11.7 °C 10.1 °F /  -12.2 °C 1021.9 in /  34601.5 hPa Calm     95 % 0.0 in /  0 mm
07:07 10.8 °F /  -11.8 °C 10.0 °F /  -12.2 °C 1021.9 in /  34601.5 hPa Calm     95 % 0.0 in /  0 mm
07:12 10.8 °F /  -11.8 °C 10.0 °F /  -12.2 °C 1022.2 in /  34611.7 hPa Calm     95 % 0.0 in /  0 mm
07:17 10.7 °F /  -11.8 °C 9.9 °F /  -12.3 °C 1022.2 in /  34611.7 hPa Calm     95 % 0.0 in /  0 mm
07:27 11.1 °F /  -11.6 °C 10.5 °F /  -11.9 °C 1022.2 in /  34611.7 hPa Calm     96 % 0.0 in /  0 mm
07:32 10.9 °F /  -11.7 °C 10.0 °F /  -12.2 °C 1022.2 in /  34611.7 hPa Calm     94 % 0.0 in /  0 mm
07:37 10.9 °F /  -11.7 °C 10.1 °F /  -12.2 °C 1022.2 in /  34611.7 hPa SSW 3.2 mph /  5.1 km/h   95 % 0.0 in /  0 mm
07:42 11.0 °F /  -11.7 °C 10.2 °F /  -12.1 °C 1022.2 in /  34611.7 hPa Calm   3.2 mph /  5.1 km/h 95 % 0.0 in /  0 mm
07:47 11.2 °F /  -11.6 °C 10.4 °F /  -12 °C 1022.6 in /  34625.2 hPa SSW 3.2 mph /  5.1 km/h 3.2 mph /  5.1 km/h 95 % 0.0 in /  0 mm
07:52 11.3 °F /  -11.5 °C 10.5 °F /  -11.9 °C 1022.6 in /  34625.2 hPa Calm   3.2 mph /  5.1 km/h 95 % 0.0 in /  0 mm
07:57 11.7 °F /  -11.3 °C 11.1 °F /  -11.6 °C 1022.6 in /  34625.2 hPa Calm   3.2 mph /  5.1 km/h 96 % 0.0 in /  0 mm
08:02 11.9 °F /  -11.2 °C 11.3 °F /  -11.5 °C 1022.6 in /  34625.2 hPa Calm   3.2 mph /  5.1 km/h 96 % 0.0 in /  0 mm
08:12 12.4 °F /  -10.9 °C 11.6 °F /  -11.3 °C 1022.6 in /  34625.2 hPa SSW 3.2 mph /  5.1 km/h 4.8 mph /  7.7 km/h 95 % 0.0 in /  0 mm
08:17 12.7 °F /  -10.7 °C 11.9 °F /  -11.2 °C 1022.6 in /  34625.2 hPa SW 1.6 mph /  2.6 km/h 6.4 mph /  10.3 km/h 95 % 0.0 in /  0 mm
08:22 12.8 °F /  -10.7 °C 12.0 °F /  -11.1 °C 1022.6 in /  34625.2 hPa SW 8.0 mph /  12.9 km/h 8.0 mph /  12.9 km/h 95 % 0.0 in /  0 mm
08:32 12.8 °F /  -10.7 °C 11.7 °F /  -11.3 °C 1022.9 in /  34635.4 hPa SW 6.4 mph /  10.3 km/h 9.7 mph /  15.6 km/h 93 % 0.0 in /  0 mm
08:37 12.8 °F /  -10.7 °C 11.7 °F /  -11.3 °C 1022.9 in /  34635.4 hPa SW 3.2 mph /  5.1 km/h 11.3 mph /  18.2 km/h 93 % 0.0 in /  0 mm
08:42 12.8 °F /  -10.7 °C 11.7 °F /  -11.3 °C 1022.9 in /  34635.4 hPa SW 4.8 mph /  7.7 km/h 11.3 mph /  18.2 km/h 93 % 0.0 in /  0 mm
08:47 12.8 °F /  -10.7 °C 11.5 °F /  -11.4 °C 1023.2 in /  34645.6 hPa WSW 6.4 mph /  10.3 km/h 11.3 mph /  18.2 km/h 92 % 0.0 in /  0 mm
08:57 13.2 °F /  -10.4 °C 11.9 °F /  -11.2 °C 1023.2 in /  34645.6 hPa SW 6.4 mph /  10.3 km/h 9.7 mph /  15.6 km/h 92 % 0.0 in /  0 mm
09:02 13.3 °F /  -10.4 °C 11.9 °F /  -11.2 °C 1023.2 in /  34645.6 hPa SW 4.8 mph /  7.7 km/h 11.3 mph /  18.2 km/h 91 % 0.0 in /  0 mm
09:12 13.6 °F /  -10.2 °C 11.8 °F /  -11.2 °C 1023.2 in /  34645.6 hPa SW 4.8 mph /  7.7 km/h 11.3 mph /  18.2 km/h 89 % 0.0 in /  0 mm
09:17 13.6 °F /  -10.2 °C 11.5 °F /  -11.4 °C 1023.6 in /  34659.1 hPa SW 6.4 mph /  10.3 km/h 9.7 mph /  15.6 km/h 87 % 0.0 in /  0 mm
09:27 13.7 °F /  -10.2 °C 11.7 °F /  -11.3 °C 1023.6 in /  34659.1 hPa WSW 3.2 mph /  5.1 km/h 9.7 mph /  15.6 km/h 88 % 0.0 in /  0 mm
09:32 13.8 °F /  -10.1 °C 11.8 °F /  -11.2 °C 1023.9 in /  34669.3 hPa Calm   9.7 mph /  15.6 km/h 88 % 0.0 in /  0 mm
09:42 14.0 °F /  -10 °C 11.7 °F /  -11.3 °C 1023.9 in /  34669.3 hPa WSW 3.2 mph /  5.1 km/h 8.0 mph /  12.9 km/h 86 % 0.0 in /  0 mm
09:47 14.0 °F /  -10 °C 11.5 °F /  -11.4 °C 1023.9 in /  34669.3 hPa SW 3.2 mph /  5.1 km/h 8.0 mph /  12.9 km/h 85 % 0.0 in /  0 mm
09:52 14.3 °F /  -9.8 °C 12.0 °F /  -11.1 °C 1023.9 in /  34669.3 hPa South 4.8 mph /  7.7 km/h 8.0 mph /  12.9 km/h 86 % 0.0 in /  0 mm
09:57 14.5 °F /  -9.7 °C 12.0 °F /  -11.1 °C 1023.9 in /  34669.3 hPa SSW 4.8 mph /  7.7 km/h 8.0 mph /  12.9 km/h 85 % 0.0 in /  0 mm
10:02 14.6 °F /  -9.7 °C 11.9 °F /  -11.2 °C 1023.9 in /  34669.3 hPa SW 3.2 mph /  5.1 km/h 8.0 mph /  12.9 km/h 84 % 0.0 in /  0 mm
10:12 14.9 °F /  -9.5 °C 12.2 °F /  -11 °C 1023.9 in /  34669.3 hPa SW 4.8 mph /  7.7 km/h 9.7 mph /  15.6 km/h 84 % 0.0 in /  0 mm
10:17 14.9 °F /  -9.5 °C 12.0 °F /  -11.1 °C 1023.9 in /  34669.3 hPa South 6.4 mph /  10.3 km/h 11.3 mph /  18.2 km/h 83 % 0.0 in /  0 mm
10:22 14.9 °F /  -9.5 °C 12.0 °F /  -11.1 °C 1024.3 in /  34682.8 hPa SW 8.0 mph /  12.9 km/h 12.9 mph /  20.8 km/h 83 % 0.0 in /  0 mm
10:32 15.2 °F /  -9.3 °C 12.0 °F /  -11.1 °C 1024.3 in /  34682.8 hPa WSW 6.4 mph /  10.3 km/h 12.9 mph /  20.8 km/h 81 % 0.0 in /  0 mm
10:37 15.2 °F /  -9.3 °C 11.6 °F /  -11.3 °C 1024.3 in /  34682.8 hPa SW 3.2 mph /  5.1 km/h 14.5 mph /  23.3 km/h 79 % 0.0 in /  0 mm
10:42 15.4 °F /  -9.2 °C 12.3 °F /  -10.9 °C 1024.3 in /  34682.8 hPa SW 6.4 mph /  10.3 km/h 16.1 mph /  25.9 km/h 82 % 0.0 in /  0 mm
10:47 15.7 °F /  -9.1 °C 12.1 °F /  -11.1 °C 1024.3 in /  34682.8 hPa WSW 4.8 mph /  7.7 km/h 16.1 mph /  25.9 km/h 79 % 0.0 in /  0 mm
10:57 16.1 °F /  -8.8 °C 11.7 °F /  -11.3 °C 1024.3 in /  34682.8 hPa SSW 4.8 mph /  7.7 km/h 11.3 mph /  18.2 km/h 75 % 0.0 in /  0 mm
11:07 16.2 °F /  -8.8 °C 12.0 °F /  -11.1 °C 1024.3 in /  34682.8 hPa SSW 4.8 mph /  7.7 km/h 12.9 mph /  20.8 km/h 76 % 0.0 in /  0 mm
11:12 16.4 °F /  -8.7 °C 12.0 °F /  -11.1 °C 1024.3 in /  34682.8 hPa WSW 4.8 mph /  7.7 km/h 12.9 mph /  20.8 km/h 75 % 0.0 in /  0 mm
11:17 16.7 °F /  -8.5 °C 11.6 °F /  -11.3 °C 1024.3 in /  34682.8 hPa WSW 6.4 mph /  10.3 km/h 16.1 mph /  25.9 km/h 72 % 0.0 in /  0 mm
11:22 16.5 °F /  -8.6 °C 11.2 °F /  -11.6 °C 1024.3 in /  34682.8 hPa WSW 8.0 mph /  12.9 km/h 16.1 mph /  25.9 km/h 71 % 0.0 in /  0 mm
11:27 16.5 °F /  -8.6 °C 11.4 °F /  -11.4 °C 1024.3 in /  34682.8 hPa SW 6.4 mph /  10.3 km/h 14.5 mph /  23.3 km/h 72 % 0.0 in /  0 mm
11:32 16.8 °F /  -8.4 °C 11.9 °F /  -11.2 °C 1024.3 in /  34682.8 hPa South 6.4 mph /  10.3 km/h 14.5 mph /  23.3 km/h 73 % 0.0 in /  0 mm
11:42 17.3 °F /  -8.2 °C 12.6 °F /  -10.8 °C 1024.3 in /  34682.8 hPa SSW 3.2 mph /  5.1 km/h 12.9 mph /  20.8 km/h 74 % 0.0 in /  0 mm
11:47 17.3 °F /  -8.2 °C 10.9 °F /  -11.7 °C 1024.3 in /  34682.8 hPa SW 9.7 mph /  15.6 km/h 12.9 mph /  20.8 km/h 66 % 0.0 in /  0 mm
11:52 17.3 °F /  -8.2 °C 11.6 °F /  -11.3 °C 1024.3 in /  34682.8 hPa SSE 6.4 mph /  10.3 km/h 16.1 mph /  25.9 km/h 69 % 0.0 in /  0 mm
11:57 17.4 °F /  -8.1 °C 11.4 °F /  -11.4 °C 1024.3 in /  34682.8 hPa South 8.0 mph /  12.9 km/h 16.1 mph /  25.9 km/h 68 % 0.0 in /  0 mm
12:02 17.4 °F /  -8.1 °C 10.8 °F /  -11.8 °C 1024.3 in /  34682.8 hPa SW 14.5 mph /  23.3 km/h 16.1 mph /  25.9 km/h 65 % 0.0 in /  0 mm
12:12 17.7 °F /  -7.9 °C 10.8 °F /  -11.8 °C 1024.3 in /  34682.8 hPa SW 9.7 mph /  15.6 km/h 19.3 mph /  31.1 km/h 64 % 0.0 in /  0 mm
12:17 17.8 °F /  -7.9 °C 10.9 °F /  -11.7 °C 1024.3 in /  34682.8 hPa SW 9.7 mph /  15.6 km/h 19.3 mph /  31.1 km/h 64 % 0.0 in /  0 mm
12:22 17.9 °F /  -7.8 °C 10.5 °F /  -11.9 °C 1024.3 in /  34682.8 hPa SW 11.3 mph /  18.2 km/h 19.3 mph /  31.1 km/h 62 % 0.0 in /  0 mm
12:32 18.1 °F /  -7.7 °C 9.7 °F /  -12.4 °C 1024.3 in /  34682.8 hPa SW 6.4 mph /  10.3 km/h 19.3 mph /  31.1 km/h 58 % 0.0 in /  0 mm
12:42 18.2 °F /  -7.7 °C 10.3 °F /  -12.1 °C 1024.6 in /  34693 hPa WSW 14.5 mph /  23.3 km/h 27.4 mph /  44.1 km/h 60 % 0.0 in /  0 mm
12:52 18.4 °F /  -7.6 °C 10.7 °F /  -11.8 °C 1024.6 in /  34693 hPa WSW 12.9 mph /  20.8 km/h 24.1 mph /  38.8 km/h 61 % 0.0 in /  0 mm
12:57 18.4 °F /  -7.6 °C 10.2 °F /  -12.1 °C 1024.6 in /  34693 hPa SSW 6.4 mph /  10.3 km/h 24.1 mph /  38.8 km/h 59 % 0.0 in /  0 mm
13:02 18.8 °F /  -7.3 °C 11.1 °F /  -11.6 °C 1024.6 in /  34693 hPa SW 6.4 mph /  10.3 km/h 20.9 mph /  33.6 km/h 61 % 0.0 in /  0 mm
13:07 19.1 °F /  -7.2 °C 11.6 °F /  -11.3 °C 1024.6 in /  34693 hPa SSW 11.3 mph /  18.2 km/h 20.9 mph /  33.6 km/h 62 % 0.0 in /  0 mm
13:12 19.3 °F /  -7.1 °C 11.8 °F /  -11.2 °C 1024.6 in /  34693 hPa SW 11.3 mph /  18.2 km/h 22.5 mph /  36.2 km/h 62 % 0.0 in /  0 mm
13:17 19.4 °F /  -7 °C 11.2 °F /  -11.6 °C 1024.6 in /  34693 hPa SSW 11.3 mph /  18.2 km/h 22.5 mph /  36.2 km/h 59 % 0.0 in /  0 mm
13:22 19.4 °F /  -7 °C 11.4 °F /  -11.4 °C 1024.6 in /  34693 hPa SW 6.4 mph /  10.3 km/h 22.5 mph /  36.2 km/h 60 % 0.0 in /  0 mm
13:27 19.5 °F /  -6.9 °C 11.3 °F /  -11.5 °C 1024.6 in /  34693 hPa SW 6.4 mph /  10.3 km/h 20.9 mph /  33.6 km/h 59 % 0.0 in /  0 mm
13:32 19.6 °F /  -6.9 °C 11.9 °F /  -11.2 °C 1024.6 in /  34693 hPa SW 17.7 mph /  28.5 km/h 20.9 mph /  33.6 km/h 61 % 0.0 in /  0 mm
13:37 19.3 °F /  -7.1 °C 11.1 °F /  -11.6 °C 1024.6 in /  34693 hPa SW 8.0 mph /  12.9 km/h 20.9 mph /  33.6 km/h 59 % 0.0 in /  0 mm
13:42 19.1 °F /  -7.2 °C 11.4 °F /  -11.4 °C 1024.9 in /  34703.1 hPa SSW 9.7 mph /  15.6 km/h 20.9 mph /  33.6 km/h 61 % 0.0 in /  0 mm
13:52 19.1 °F /  -7.2 °C 11.9 °F /  -11.2 °C 1024.6 in /  34693 hPa SW 6.4 mph /  10.3 km/h 19.3 mph /  31.1 km/h 63 % 0.0 in /  0 mm
13:57 19.2 °F /  -7.1 °C 11.7 °F /  -11.3 °C 1024.6 in /  34693 hPa WSW 11.3 mph /  18.2 km/h 19.3 mph /  31.1 km/h 62 % 0.0 in /  0 mm
14:02 19.1 °F /  -7.2 °C 10.6 °F /  -11.9 °C 1024.9 in /  34703.1 hPa SW 9.7 mph /  15.6 km/h 20.9 mph /  33.6 km/h 58 % 0.0 in /  0 mm
14:07 19.2 °F /  -7.1 °C 11.0 °F /  -11.7 °C 1024.9 in /  34703.1 hPa WSW 14.5 mph /  23.3 km/h 20.9 mph /  33.6 km/h 59 % 0.0 in /  0 mm
14:12 19.2 °F /  -7.1 °C 11.2 °F /  -11.6 °C 1024.9 in /  34703.1 hPa SW 12.9 mph /  20.8 km/h 20.9 mph /  33.6 km/h 60 % 0.0 in /  0 mm
14:17 19.2 °F /  -7.1 °C 11.0 °F /  -11.7 °C 1024.9 in /  34703.1 hPa WSW 8.0 mph /  12.9 km/h 19.3 mph /  31.1 km/h 59 % 0.0 in /  0 mm
14:22 19.4 °F /  -7 °C 11.4 °F /  -11.4 °C 1024.9 in /  34703.1 hPa SW 4.8 mph /  7.7 km/h 19.3 mph /  31.1 km/h 60 % 0.0 in /  0 mm
14:32 19.5 °F /  -6.9 °C 11.5 °F /  -11.4 °C 1024.9 in /  34703.1 hPa SSW 6.4 mph /  10.3 km/h 17.7 mph /  28.5 km/h 60 % 0.0 in /  0 mm
14:37 19.9 °F /  -6.7 °C 12.2 °F /  -11 °C 1024.9 in /  34703.1 hPa WSW 4.8 mph /  7.7 km/h 17.7 mph /  28.5 km/h 61 % 0.0 in /  0 mm
14:42 20.1 °F /  -6.6 °C 11.6 °F /  -11.3 °C 1024.6 in /  34693 hPa WSW 6.4 mph /  10.3 km/h 17.7 mph /  28.5 km/h 58 % 0.0 in /  0 mm
14:47 20.2 °F /  -6.6 °C 11.7 °F /  -11.3 °C 1024.6 in /  34693 hPa SSW 9.7 mph /  15.6 km/h 19.3 mph /  31.1 km/h 58 % 0.0 in /  0 mm
14:52 20.3 °F /  -6.5 °C 11.0 °F /  -11.7 °C 1024.6 in /  34693 hPa SSW 19.3 mph /  31.1 km/h 19.3 mph /  31.1 km/h 55 % 0.0 in /  0 mm
14:57 20.2 °F /  -6.6 °C 11.7 °F /  -11.3 °C 1024.6 in /  34693 hPa West 6.4 mph /  10.3 km/h 19.3 mph /  31.1 km/h 58 % 0.0 in /  0 mm
15:02 20.0 °F /  -6.7 °C 11.2 °F /  -11.6 °C 1024.6 in /  34693 hPa SW 11.3 mph /  18.2 km/h 19.3 mph /  31.1 km/h 57 % 0.0 in /  0 mm
15:07 19.8 °F /  -6.8 °C 11.6 °F /  -11.3 °C 1024.6 in /  34693 hPa SW 14.5 mph /  23.3 km/h 19.3 mph /  31.1 km/h 59 % 0.0 in /  0 mm
15:12 19.7 °F /  -6.8 °C 11.7 °F /  -11.3 °C 1024.6 in /  34693 hPa WSW 9.7 mph /  15.6 km/h 20.9 mph /  33.6 km/h 60 % 0.0 in /  0 mm
15:17 19.6 °F /  -6.9 °C 11.4 °F /  -11.4 °C 1024.6 in /  34693 hPa West 6.4 mph /  10.3 km/h 22.5 mph /  36.2 km/h 59 % 0.0 in /  0 mm
15:22 19.3 °F /  -7.1 °C 11.3 °F /  -11.5 °C 1024.6 in /  34693 hPa WSW 6.4 mph /  10.3 km/h 22.5 mph /  36.2 km/h 60 % 0.0 in /  0 mm
15:27 18.9 °F /  -7.3 °C 11.2 °F /  -11.6 °C 1024.9 in /  34703.1 hPa West 17.7 mph /  28.5 km/h 22.5 mph /  36.2 km/h 61 % 0.0 in /  0 mm
15:32 17.3 °F /  -8.2 °C 12.2 °F /  -11 °C 1024.9 in /  34703.1 hPa West 4.8 mph /  7.7 km/h 30.6 mph /  49.2 km/h 72 % 0.0 in /  0 mm
15:37 16.8 °F /  -8.4 °C 12.5 °F /  -10.8 °C 1024.9 in /  34703.1 hPa WNW 11.3 mph /  18.2 km/h 30.6 mph /  49.2 km/h 76 % 0.5 in /  12.7 mm
15:42 17.0 °F /  -8.3 °C 12.7 °F /  -10.7 °C 1024.9 in /  34703.1 hPa West 3.2 mph /  5.1 km/h 30.6 mph /  49.2 km/h 76 % 0.5 in /  12.7 mm
15:47 17.4 °F /  -8.1 °C 12.9 °F /  -10.6 °C 1024.6 in /  34693 hPa SW 4.8 mph /  7.7 km/h 19.3 mph /  31.1 km/h 75 % 0.5 in /  12.7 mm
15:52 17.8 °F /  -7.9 °C 12.9 °F /  -10.6 °C 1024.6 in /  34693 hPa West 4.8 mph /  7.7 km/h 19.3 mph /  31.1 km/h 73 % 0.5 in /  12.7 mm
16:02 18.7 °F /  -7.4 °C 12.2 °F /  -11 °C 1024.6 in /  34693 hPa West 6.4 mph /  10.3 km/h 12.9 mph /  20.8 km/h 66 % 0.5 in /  12.7 mm
16:07 19.2 °F /  -7.1 °C 13.4 °F /  -10.3 °C 1024.6 in /  34693 hPa WSW 8.0 mph /  12.9 km/h 16.1 mph /  25.9 km/h 69 % 0.5 in /  12.7 mm
16:12 19.3 °F /  -7.1 °C 12.6 °F /  -10.8 °C 1024.6 in /  34693 hPa WSW 3.2 mph /  5.1 km/h 16.1 mph /  25.9 km/h 65 % 0.5 in /  12.7 mm
16:17 19.3 °F /  -7.1 °C 12.8 °F /  -10.7 °C 1024.6 in /  34693 hPa West 8.0 mph /  12.9 km/h 11.3 mph /  18.2 km/h 66 % 0.5 in /  12.7 mm
16:22 19.1 °F /  -7.2 °C 12.4 °F /  -10.9 °C 1024.6 in /  34693 hPa WNW 4.8 mph /  7.7 km/h 11.3 mph /  18.2 km/h 65 % 0.5 in /  12.7 mm
16:27 19.1 °F /  -7.2 °C 12.4 °F /  -10.9 °C 1024.3 in /  34682.8 hPa WNW 9.7 mph /  15.6 km/h 12.9 mph /  20.8 km/h 65 % 0.5 in /  12.7 mm
16:32 19.2 °F /  -7.1 °C 13.1 °F /  -10.5 °C 1024.6 in /  34693 hPa WNW 8.0 mph /  12.9 km/h 12.9 mph /  20.8 km/h 68 % 0.3 in /  7.62 mm
16:37 19.2 °F /  -7.1 °C 13.4 °F /  -10.3 °C 1024.6 in /  34693 hPa West 4.8 mph /  7.7 km/h 14.5 mph /  23.3 km/h 69 % 0.0 in /  0 mm
16:42 19.1 °F /  -7.2 °C 13.3 °F /  -10.4 °C 1024.6 in /  34693 hPa WSW 11.3 mph /  18.2 km/h 14.5 mph /  23.3 km/h 69 % 0.0 in /  0 mm
16:47 19.1 °F /  -7.2 °C 13.3 °F /  -10.4 °C 1024.6 in /  34693 hPa WNW 11.3 mph /  18.2 km/h 14.5 mph /  23.3 km/h 69 % 0.0 in /  0 mm
16:52 19.1 °F /  -7.2 °C 13.1 °F /  -10.5 °C 1024.6 in /  34693 hPa West 4.8 mph /  7.7 km/h 16.1 mph /  25.9 km/h 68 % 0.0 in /  0 mm
16:57 19.0 °F /  -7.2 °C 12.5 °F /  -10.8 °C 1024.9 in /  34703.1 hPa West 8.0 mph /  12.9 km/h 17.7 mph /  28.5 km/h 66 % 0.0 in /  0 mm
17:02 18.9 °F /  -7.3 °C 12.6 °F /  -10.8 °C 1024.9 in /  34703.1 hPa West 9.7 mph /  15.6 km/h 19.3 mph /  31.1 km/h 67 % 0.0 in /  0 mm
17:12 17.7 °F /  -7.9 °C 12.4 °F /  -10.9 °C 1024.9 in /  34703.1 hPa WNW 11.3 mph /  18.2 km/h 27.4 mph /  44.1 km/h 71 % 0.0 in /  0 mm
17:17 17.6 °F /  -8 °C 11.8 °F /  -11.2 °C 1024.9 in /  34703.1 hPa West 9.7 mph /  15.6 km/h 27.4 mph /  44.1 km/h 69 % 0.0 in /  0 mm
17:22 17.7 °F /  -7.9 °C 12.6 °F /  -10.8 °C 1024.9 in /  34703.1 hPa West 9.7 mph /  15.6 km/h 24.1 mph /  38.8 km/h 72 % 0.0 in /  0 mm
17:27 18.1 °F /  -7.7 °C 13.2 °F /  -10.4 °C 1024.9 in /  34703.1 hPa West 3.2 mph /  5.1 km/h 16.1 mph /  25.9 km/h 73 % 0.0 in /  0 mm
17:32 18.2 °F /  -7.7 °C 12.9 °F /  -10.6 °C 1024.9 in /  34703.1 hPa West 4.8 mph /  7.7 km/h 17.7 mph /  28.5 km/h 71 % 0.0 in /  0 mm
17:42 18.3 °F /  -7.6 °C 13.0 °F /  -10.6 °C 1024.9 in /  34703.1 hPa WSW 9.7 mph /  15.6 km/h 17.7 mph /  28.5 km/h 71 % 0.0 in /  0 mm
17:52 18.7 °F /  -7.4 °C 12.9 °F /  -10.6 °C 1024.9 in /  34703.1 hPa West 4.8 mph /  7.7 km/h 14.5 mph /  23.3 km/h 69 % 0.0 in /  0 mm
17:57 18.8 °F /  -7.3 °C 13.2 °F /  -10.4 °C 1024.9 in /  34703.1 hPa West 8.0 mph /  12.9 km/h 14.5 mph /  23.3 km/h 70 % 0.0 in /  0 mm
18:02 19.1 °F /  -7.2 °C 13.3 °F /  -10.4 °C 1024.9 in /  34703.1 hPa WSW 11.3 mph /  18.2 km/h 14.5 mph /  23.3 km/h 69 % 0.0 in /  0 mm
18:12 19.6 °F /  -6.9 °C 12.8 °F /  -10.7 °C 1024.9 in /  34703.1 hPa WSW 12.9 mph /  20.8 km/h 19.3 mph /  31.1 km/h 65 % 0.0 in /  0 mm
18:17 19.6 °F /  -6.9 °C 12.4 °F /  -10.9 °C 1024.9 in /  34703.1 hPa WSW 3.2 mph /  5.1 km/h 19.3 mph /  31.1 km/h 63 % 0.0 in /  0 mm
18:22 19.6 °F /  -6.9 °C 10.8 °F /  -11.8 °C 1024.9 in /  34703.1 hPa West 6.4 mph /  10.3 km/h 19.3 mph /  31.1 km/h 57 % 0.0 in /  0 mm
18:27 19.6 °F /  -6.9 °C 11.4 °F /  -11.4 °C 1024.9 in /  34703.1 hPa South 6.4 mph /  10.3 km/h 20.9 mph /  33.6 km/h 59 % 0.0 in /  0 mm
18:32 19.6 °F /  -6.9 °C 11.4 °F /  -11.4 °C 1024.9 in /  34703.1 hPa WSW 16.1 mph /  25.9 km/h 20.9 mph /  33.6 km/h 59 % 0.0 in /  0 mm
18:37 19.5 °F /  -6.9 °C 11.3 °F /  -11.5 °C 1024.9 in /  34703.1 hPa WSW 4.8 mph /  7.7 km/h 22.5 mph /  36.2 km/h 59 % 0.0 in /  0 mm
18:42 19.7 °F /  -6.8 °C 12.2 °F /  -11 °C 1024.9 in /  34703.1 hPa WNW 4.8 mph /  7.7 km/h 22.5 mph /  36.2 km/h 62 % 0.0 in /  0 mm
18:52 19.6 °F /  -6.9 °C 12.1 °F /  -11.1 °C 1024.9 in /  34703.1 hPa WSW 8.0 mph /  12.9 km/h 16.1 mph /  25.9 km/h 62 % 0.0 in /  0 mm
18:57 19.4 °F /  -7 °C 11.9 °F /  -11.2 °C 1024.9 in /  34703.1 hPa West 8.0 mph /  12.9 km/h 17.7 mph /  28.5 km/h 62 % 0.0 in /  0 mm
19:02 19.5 °F /  -6.9 °C 12.3 °F /  -10.9 °C 1024.9 in /  34703.1 hPa West 6.4 mph /  10.3 km/h 17.7 mph /  28.5 km/h 63 % 0.0 in /  0 mm
19:12 19.5 °F /  -6.9 °C 12.5 °F /  -10.8 °C 1025.3 in /  34716.7 hPa WNW 6.4 mph /  10.3 km/h 12.9 mph /  20.8 km/h 64 % 0.0 in /  0 mm
19:17 19.4 °F /  -7 °C 12.2 °F /  -11 °C 1025.3 in /  34716.7 hPa West 11.3 mph /  18.2 km/h 12.9 mph /  20.8 km/h 63 % 0.0 in /  0 mm
19:22 19.1 °F /  -7.2 °C 12.1 °F /  -11.1 °C 1025.3 in /  34716.7 hPa West 4.8 mph /  7.7 km/h 14.5 mph /  23.3 km/h 64 % 0.0 in /  0 mm
19:27 18.9 °F /  -7.3 °C 12.2 °F /  -11 °C 1025.3 in /  34716.7 hPa SW 4.8 mph /  7.7 km/h 14.5 mph /  23.3 km/h 65 % 0.0 in /  0 mm
19:32 18.9 °F /  -7.3 °C 11.9 °F /  -11.2 °C 1025.3 in /  34716.7 hPa WSW 12.9 mph /  20.8 km/h 14.5 mph /  23.3 km/h 64 % 0.0 in /  0 mm
19:37 18.9 °F /  -7.3 °C 11.9 °F /  -11.2 °C 1025.3 in /  34716.7 hPa West 6.4 mph /  10.3 km/h 12.9 mph /  20.8 km/h 64 % 0.0 in /  0 mm
19:42 18.9 °F /  -7.3 °C 11.9 °F /  -11.2 °C 1025.3 in /  34716.7 hPa West 4.8 mph /  7.7 km/h 14.5 mph /  23.3 km/h 64 % 0.0 in /  0 mm
19:52 18.7 °F /  -7.4 °C 11.8 °F /  -11.2 °C 1025.6 in /  34726.8 hPa WNW 6.4 mph /  10.3 km/h 12.9 mph /  20.8 km/h 64 % 0.0 in /  0 mm
19:57 18.5 °F /  -7.5 °C 11.8 °F /  -11.2 °C 1025.6 in /  34726.8 hPa SW 8.0 mph /  12.9 km/h 12.9 mph /  20.8 km/h 65 % 0.0 in /  0 mm
20:02 18.4 °F /  -7.6 °C 12.2 °F /  -11 °C 1025.6 in /  34726.8 hPa WSW 9.7 mph /  15.6 km/h 12.9 mph /  20.8 km/h 67 % 0.0 in /  0 mm
20:12 18.7 °F /  -7.4 °C 12.2 °F /  -11 °C 1025.6 in /  34726.8 hPa West 6.4 mph /  10.3 km/h 9.7 mph /  15.6 km/h 66 % 0.0 in /  0 mm
20:17 18.8 °F /  -7.3 °C 12.3 °F /  -10.9 °C 1026.0 in /  34740.4 hPa West 3.2 mph /  5.1 km/h 9.7 mph /  15.6 km/h 66 % 0.0 in /  0 mm
20:22 18.9 °F /  -7.3 °C 12.2 °F /  -11 °C 1026.0 in /  34740.4 hPa WSW 1.6 mph /  2.6 km/h 9.7 mph /  15.6 km/h 65 % 0.0 in /  0 mm
20:27 18.7 °F /  -7.4 °C 12.4 °F /  -10.9 °C 1026.0 in /  34740.4 hPa West 4.8 mph /  7.7 km/h 9.7 mph /  15.6 km/h 67 % 0.0 in /  0 mm
20:32 18.4 °F /  -7.6 °C 12.2 °F /  -11 °C 1026.0 in /  34740.4 hPa WSW 1.6 mph /  2.6 km/h 8.0 mph /  12.9 km/h 67 % 0.0 in /  0 mm
20:37 18.2 °F /  -7.7 °C 12.2 °F /  -11 °C 1026.0 in /  34740.4 hPa WSW 3.2 mph /  5.1 km/h 8.0 mph /  12.9 km/h 68 % 0.0 in /  0 mm
20:42 18.1 °F /  -7.7 °C 12.3 °F /  -10.9 °C 1026.0 in /  34740.4 hPa Calm   8.0 mph /  12.9 km/h 69 % 0.0 in /  0 mm
20:47 17.8 °F /  -7.9 °C 12.5 °F /  -10.8 °C 1026.0 in /  34740.4 hPa WSW 1.6 mph /  2.6 km/h 6.4 mph /  10.3 km/h 71 % 0.0 in /  0 mm
20:52 17.7 °F /  -7.9 °C 12.6 °F /  -10.8 °C 1026.3 in /  34750.5 hPa WSW 1.6 mph /  2.6 km/h 4.8 mph /  7.7 km/h 72 % 0.0 in /  0 mm
20:57 17.6 °F /  -8 °C 12.5 °F /  -10.8 °C 1026.3 in /  34750.5 hPa WSW 1.6 mph /  2.6 km/h 6.4 mph /  10.3 km/h 72 % 0.0 in /  0 mm
21:02 17.4 °F /  -8.1 °C 12.3 °F /  -10.9 °C 1026.3 in /  34750.5 hPa West 1.6 mph /  2.6 km/h 6.4 mph /  10.3 km/h 72 % 0.0 in /  0 mm
21:07 17.2 °F /  -8.2 °C 12.3 °F /  -10.9 °C 1026.3 in /  34750.5 hPa West 3.2 mph /  5.1 km/h 6.4 mph /  10.3 km/h 73 % 0.0 in /  0 mm
21:12 16.8 °F /  -8.4 °C 12.3 °F /  -10.9 °C 1026.3 in /  34750.5 hPa WSW 1.6 mph /  2.6 km/h 3.2 mph /  5.1 km/h 75 % 0.0 in /  0 mm
21:17 16.7 °F /  -8.5 °C 12.2 °F /  -11 °C 1026.3 in /  34750.5 hPa Calm   3.2 mph /  5.1 km/h 75 % 0.0 in /  0 mm
21:22 16.4 °F /  -8.7 °C 12.2 °F /  -11 °C 1026.3 in /  34750.5 hPa WNW 3.2 mph /  5.1 km/h 3.2 mph /  5.1 km/h 76 % 0.0 in /  0 mm
21:27 16.1 °F /  -8.8 °C 12.3 °F /  -10.9 °C 1026.6 in /  34760.7 hPa Calm   3.2 mph /  5.1 km/h 78 % 0.0 in /  0 mm
21:32 15.8 °F /  -9 °C 12.2 °F /  -11 °C 1026.6 in /  34760.7 hPa Calm   3.2 mph /  5.1 km/h 79 % 0.0 in /  0 mm
21:42 15.3 °F /  -9.3 °C 12.1 °F /  -11.1 °C 1026.6 in /  34760.7 hPa Calm   1.6 mph /  2.6 km/h 81 % 0.0 in /  0 mm
21:52 14.6 °F /  -9.7 °C 11.9 °F /  -11.2 °C 1027.0 in /  34774.2 hPa West 1.6 mph /  2.6 km/h 1.6 mph /  2.6 km/h 84 % 0.0 in /  0 mm
21:57 14.2 °F /  -9.9 °C 11.7 °F /  -11.3 °C 1027.0 in /  34774.2 hPa Calm   1.6 mph /  2.6 km/h 85 % 0.0 in /  0 mm
22:02 14.2 °F /  -9.9 °C 11.5 °F /  -11.4 °C 1027.0 in /  34774.2 hPa Calm   1.6 mph /  2.6 km/h 84 % 0.0 in /  0 mm
22:07 14.1 °F /  -9.9 °C 11.3 °F /  -11.5 °C 1027.3 in /  34784.4 hPa Calm   1.6 mph /  2.6 km/h 83 % 0.0 in /  0 mm
22:12 14.1 °F /  -9.9 °C 11.3 °F /  -11.5 °C 1027.0 in /  34774.2 hPa Calm   1.6 mph /  2.6 km/h 83 % 0.0 in /  0 mm
22:17 14.1 °F /  -9.9 °C 10.9 °F /  -11.7 °C 1027.3 in /  34784.4 hPa Calm   3.2 mph /  5.1 km/h 81 % 0.0 in /  0 mm
22:22 14.0 °F /  -10 °C 10.8 °F /  -11.8 °C 1027.3 in /  34784.4 hPa Calm   3.2 mph /  5.1 km/h 81 % 0.0 in /  0 mm
22:32 13.4 °F /  -10.3 °C 10.2 °F /  -12.1 °C 1027.3 in /  34784.4 hPa West 1.6 mph /  2.6 km/h 3.2 mph /  5.1 km/h 81 % 0.0 in /  0 mm
22:42 13.5 °F /  -10.3 °C 9.7 °F /  -12.4 °C 1027.7 in /  34797.9 hPa Calm   4.8 mph /  7.7 km/h 78 % 0.0 in /  0 mm
22:47 13.1 °F /  -10.5 °C 9.5 °F /  -12.5 °C 1027.7 in /  34797.9 hPa Calm   3.2 mph /  5.1 km/h 79 % 0.0 in /  0 mm
22:52 13.0 °F /  -10.6 °C 9.4 °F /  -12.6 °C 1027.7 in /  34797.9 hPa Calm   1.6 mph /  2.6 km/h 79 % 0.0 in /  0 mm
22:57 12.9 °F /  -10.6 °C 9.5 °F /  -12.5 °C 1027.7 in /  34797.9 hPa Calm   1.6 mph /  2.6 km/h 80 % 0.0 in /  0 mm
23:02 12.6 °F /  -10.8 °C 9.6 °F /  -12.4 °C 1027.7 in /  34797.9 hPa Calm   1.6 mph /  2.6 km/h 82 % 0.0 in /  0 mm
23:07 12.4 °F /  -10.9 °C 9.4 °F /  -12.6 °C 1027.7 in /  34797.9 hPa Calm   1.6 mph /  2.6 km/h 82 % 0.0 in /  0 mm
23:12 12.3 °F /  -10.9 °C 9.5 °F /  -12.5 °C 1027.7 in /  34797.9 hPa Calm   1.6 mph /  2.6 km/h 83 % 0.0 in /  0 mm
23:17 12.2 °F /  -11 °C 9.4 °F /  -12.6 °C 1027.7 in /  34797.9 hPa Calm   1.6 mph /  2.6 km/h 83 % 0.0 in /  0 mm
23:22 12.1 °F /  -11.1 °C 9.3 °F /  -12.6 °C 1027.7 in /  34797.9 hPa Calm   1.6 mph /  2.6 km/h 83 % 0.0 in /  0 mm
23:27 11.9 °F /  -11.2 °C 9.1 °F /  -12.7 °C 1027.7 in /  34797.9 hPa Calm   1.6 mph /  2.6 km/h 83 % 0.0 in /  0 mm
23:37 11.6 °F /  -11.3 °C 9.0 °F /  -12.8 °C 1027.7 in /  34797.9 hPa Calm   1.6 mph /  2.6 km/h 84 % 0.0 in /  0 mm
23:42 11.5 °F /  -11.4 °C 8.9 °F /  -12.8 °C 1027.7 in /  34797.9 hPa Calm     84 % 0.0 in /  0 mm
23:52 11.3 °F /  -11.5 °C 8.9 °F /  -12.8 °C 1027.7 in /  34797.9 hPa Calm     85 % 0.0 in /  0 mm
Meteo18
Compliments of Weather Underground - 4 mb

Script developed by  Jim McMurry - jmcmurry@mwt.net Adapted for the template by  Wim van der Kuil - Leuven-Template.eu

You find our weather info also at:

European Weather Network

Weather Underground

Equipment we use:

Weather-station
Davis Vue

Weather-program
Meteobridge

Weather-server
Raspberry PI 2 B+

Provider
1 and 1

Davis Vue

Meteobridge

Raspberry PI 2 B+

1 and 1